aviador You're here:

KMOB Decoded Metar

MOBILE in AL, USA
Report Time2018-07-17 11:35:00
UTC Time2018-07-17 11:48:36
Flight Rules lifr LIFR
WindCalm
Visibility9656 m
Phenomena:Mist
Clouds:Broken 003 Hf
Overcast 150 Hf
Expected CloudBase > 400 ft AGL from Temp-Dew spread
Ceiling300 ft
Temp24°C (ISA +9)
Dew Point23°C (94% RH)
QNH1018 hPa
Density Alt1,499 ft
Elevation207 ft
Report Wrong Elevation
Raw Report
KMOB 171135Z 00000KT 6SM BR BKN003 OVC150 24/23 A3005=

Extra information for KMOB:More info

Metar Taf Metar & Taf Last 4 Metars F.Rules Stats Wind Profile Meteogram Temp Stats Airport Information Weather charts Add Link Nearby VenuesMetar ALERT Operation Metar Decoded Social comments

AIRNAV info for KMOB